sensor_id;sensor_type;location;lat;lon;timestamp;P1;durP1;ratioP1;P2;durP2;ratioP2
5929;SDS011;2990;48.746;9.236;2023-12-04T00:00:00;2.97;;;2.77;;
5929;SDS011;2990;48.746;9.236;2023-12-04T00:02:27;7.77;;;3.20;;
5929;SDS011;2990;48.746;9.236;2023-12-04T00:04:53;5.33;;;2.63;;
5929;SDS011;2990;48.746;9.236;2023-12-04T00:07:18;3.13;;;2.93;;
5929;SDS011;2990;48.746;9.236;2023-12-04T00:09:44;7.43;;;4.03;;
5929;SDS011;2990;48.746;9.236;2023-12-04T00:12:09;2.63;;;2.47;;
5929;SDS011;2990;48.746;9.236;2023-12-04T00:14:35;3.07;;;2.87;;
5929;SDS011;2990;48.746;9.236;2023-12-04T00:17:00;3.43;;;2.17;;
5929;SDS011;2990;48.746;9.236;2023-12-04T00:19:26;1.97;;;1.83;;
5929;SDS011;2990;48.746;9.236;2023-12-04T00:21:51;2.73;;;2.60;;
5929;SDS011;2990;48.746;9.236;2023-12-04T00:24:17;8.03;;;2.90;;
5929;SDS011;2990;48.746;9.236;2023-12-04T00:26:42;2.20;;;1.73;;
5929;SDS011;2990;48.746;9.236;2023-12-04T00:29:08;2.93;;;2.50;;
5929;SDS011;2990;48.746;9.236;2023-12-04T00:31:33;8.23;;;2.57;;
5929;SDS011;2990;48.746;9.236;2023-12-04T00:33:59;9.63;;;3.93;;
5929;SDS011;2990;48.746;9.236;2023-12-04T00:36:24;2.30;;;2.00;;
5929;SDS011;2990;48.746;9.236;2023-12-04T00:38:50;3.53;;;3.20;;
5929;SDS011;2990;48.746;9.236;2023-12-04T00:41:15;6.20;;;2.60;;
5929;SDS011;2990;48.746;9.236;2023-12-04T00:43:41;6.53;;;1.80;;
5929;SDS011;2990;48.746;9.236;2023-12-04T00:46:07;3.30;;;2.80;;
5929;SDS011;2990;48.746;9.236;2023-12-04T00:48:32;6.13;;;1.77;;
5929;SDS011;2990;48.746;9.236;2023-12-04T00:50:58;2.03;;;1.83;;
5929;SDS011;2990;48.746;9.236;2023-12-04T00:53:23;2.70;;;2.47;;
5929;SDS011;2990;48.746;9.236;2023-12-04T00:55:49;2.60;;;2.23;;
5929;SDS011;2990;48.746;9.236;2023-12-04T00:58:14;5.10;;;2.57;;
5929;SDS011;2990;48.746;9.236;2023-12-04T01:00:40;2.93;;;2.30;;
5929;SDS011;2990;48.746;9.236;2023-12-04T01:03:05;3.50;;;2.17;;
5929;SDS011;2990;48.746;9.236;2023-12-04T01:05:31;2.17;;;2.07;;
5929;SDS011;2990;48.746;9.236;2023-12-04T01:07:56;2.37;;;2.23;;
5929;SDS011;2990;48.746;9.236;2023-12-04T01:10:22;2.17;;;2.07;;
5929;SDS011;2990;48.746;9.236;2023-12-04T01:12:47;2.67;;;2.03;;
5929;SDS011;2990;48.746;9.236;2023-12-04T01:15:13;5.33;;;2.40;;
5929;SDS011;2990;48.746;9.236;2023-12-04T01:17:39;2.23;;;2.13;;
5929;SDS011;2990;48.746;9.236;2023-12-04T01:20:05;1.90;;;1.80;;
5929;SDS011;2990;48.746;9.236;2023-12-04T01:22:30;3.30;;;1.77;;
5929;SDS011;2990;48.746;9.236;2023-12-04T01:24:56;4.00;;;2.43;;
5929;SDS011;2990;48.746;9.236;2023-12-04T01:27:22;3.17;;;2.60;;
5929;SDS011;2990;48.746;9.236;2023-12-04T01:29:47;4.07;;;2.23;;
5929;SDS011;2990;48.746;9.236;2023-12-04T01:32:13;2.13;;;1.93;;
5929;SDS011;2990;48.746;9.236;2023-12-04T01:34:38;2.30;;;1.90;;
5929;SDS011;2990;48.746;9.236;2023-12-04T01:37:04;3.47;;;2.97;;
5929;SDS011;2990;48.746;9.236;2023-12-04T01:39:30;3.77;;;1.90;;
5929;SDS011;2990;48.746;9.236;2023-12-04T01:41:55;3.17;;;2.53;;
5929;SDS011;2990;48.746;9.236;2023-12-04T01:44:20;4.90;;;3.00;;
5929;SDS011;2990;48.746;9.236;2023-12-04T01:46:47;4.30;;;2.90;;
5929;SDS011;2990;48.746;9.236;2023-12-04T01:49:13;4.23;;;3.20;;
5929;SDS011;2990;48.746;9.236;2023-12-04T01:51:38;2.60;;;2.37;;
5929;SDS011;2990;48.746;9.236;2023-12-04T01:54:04;2.57;;;1.97;;
5929;SDS011;2990;48.746;9.236;2023-12-04T01:56:31;2.70;;;2.63;;
5929;SDS011;2990;48.746;9.236;2023-12-04T01:58:58;3.50;;;2.47;;
5929;SDS011;2990;48.746;9.236;2023-12-04T02:01:24;2.20;;;2.07;;
5929;SDS011;2990;48.746;9.236;2023-12-04T02:03:51;2.63;;;2.47;;
5929;SDS011;2990;48.746;9.236;2023-12-04T02:06:16;2.07;;;1.93;;
5929;SDS011;2990;48.746;9.236;2023-12-04T02:08:45;3.80;;;3.30;;
5929;SDS011;2990;48.746;9.236;2023-12-04T02:11:12;1.77;;;1.73;;
5929;SDS011;2990;48.746;9.236;2023-12-04T02:13:37;2.17;;;1.93;;
5929;SDS011;2990;48.746;9.236;2023-12-04T02:16:03;4.53;;;2.27;;
5929;SDS011;2990;48.746;9.236;2023-12-04T02:18:33;2.57;;;1.80;;
5929;SDS011;2990;48.746;9.236;2023-12-04T02:21:02;6.67;;;2.27;;
5929;SDS011;2990;48.746;9.236;2023-12-04T02:23:28;3.77;;;2.17;;
5929;SDS011;2990;48.746;9.236;2023-12-04T02:26:01;3.33;;;2.00;;
5929;SDS011;2990;48.746;9.236;2023-12-04T02:28:33;2.73;;;2.53;;
5929;SDS011;2990;48.746;9.236;2023-12-04T02:31:01;1.83;;;1.57;;
5929;SDS011;2990;48.746;9.236;2023-12-04T02:33:32;2.23;;;2.03;;
5929;SDS011;2990;48.746;9.236;2023-12-04T02:35:59;1.30;;;1.27;;
5929;SDS011;2990;48.746;9.236;2023-12-04T02:38:27;4.73;;;1.77;;
5929;SDS011;2990;48.746;9.236;2023-12-04T02:40:53;6.23;;;3.87;;
5929;SDS011;2990;48.746;9.236;2023-12-04T02:43:20;4.90;;;2.13;;
5929;SDS011;2990;48.746;9.236;2023-12-04T02:45:45;3.47;;;2.20;;
5929;SDS011;2990;48.746;9.236;2023-12-04T02:48:11;2.43;;;2.27;;
5929;SDS011;2990;48.746;9.236;2023-12-04T02:50:36;5.37;;;2.93;;
5929;SDS011;2990;48.746;9.236;2023-12-04T02:53:02;2.57;;;2.07;;
5929;SDS011;2990;48.746;9.236;2023-12-04T02:55:28;2.90;;;2.67;;
5929;SDS011;2990;48.746;9.236;2023-12-04T03:01:15;3.10;;;2.90;;
5929;SDS011;2990;48.746;9.236;2023-12-04T03:03:40;2.33;;;2.13;;
5929;SDS011;2990;48.746;9.236;2023-12-04T03:06:06;3.53;;;2.17;;
5929;SDS011;2990;48.746;9.236;2023-12-04T03:08:32;4.17;;;2.47;;
5929;SDS011;2990;48.746;9.236;2023-12-04T03:10:57;1.60;;;1.50;;
5929;SDS011;2990;48.746;9.236;2023-12-04T03:13:23;6.77;;;2.07;;
5929;SDS011;2990;48.746;9.236;2023-12-04T03:15:48;2.27;;;2.17;;
5929;SDS011;2990;48.746;9.236;2023-12-04T03:18:14;4.83;;;2.67;;
5929;SDS011;2990;48.746;9.236;2023-12-04T03:20:39;2.50;;;2.10;;
5929;SDS011;2990;48.746;9.236;2023-12-04T03:23:05;2.97;;;1.97;;
5929;SDS011;2990;48.746;9.236;2023-12-04T03:25:31;4.60;;;1.63;;
5929;SDS011;2990;48.746;9.236;2023-12-04T03:27:56;3.50;;;1.57;;
5929;SDS011;2990;48.746;9.236;2023-12-04T03:30:22;2.77;;;2.57;;
5929;SDS011;2990;48.746;9.236;2023-12-04T03:32:47;1.97;;;1.50;;
5929;SDS011;2990;48.746;9.236;2023-12-04T03:35:13;5.03;;;2.07;;
5929;SDS011;2990;48.746;9.236;2023-12-04T03:37:38;2.20;;;2.07;;
5929;SDS011;2990;48.746;9.236;2023-12-04T03:40:04;2.00;;;1.77;;
5929;SDS011;2990;48.746;9.236;2023-12-04T03:42:30;0.80;;;0.80;;
5929;SDS011;2990;48.746;9.236;2023-12-04T03:44:56;2.40;;;1.93;;
5929;SDS011;2990;48.746;9.236;2023-12-04T03:47:21;4.33;;;2.07;;
5929;SDS011;2990;48.746;9.236;2023-12-04T03:49:48;2.80;;;1.73;;
5929;SDS011;2990;48.746;9.236;2023-12-04T03:52:14;3.60;;;1.83;;
5929;SDS011;2990;48.746;9.236;2023-12-04T03:54:39;1.73;;;1.60;;
5929;SDS011;2990;48.746;9.236;2023-12-04T03:59:35;1.63;;;1.63;;
5929;SDS011;2990;48.746;9.236;2023-12-04T04:02:01;3.77;;;1.83;;
5929;SDS011;2990;48.746;9.236;2023-12-04T04:04:26;6.07;;;1.90;;
5929;SDS011;2990;48.746;9.236;2023-12-04T04:06:52;1.83;;;1.73;;
5929;SDS011;2990;48.746;9.236;2023-12-04T04:09:17;1.30;;;1.30;;
5929;SDS011;2990;48.746;9.236;2023-12-04T04:11:45;2.53;;;2.23;;
5929;SDS011;2990;48.746;9.236;2023-12-04T04:14:10;2.63;;;1.50;;
5929;SDS011;2990;48.746;9.236;2023-12-04T04:16:36;3.33;;;2.60;;
5929;SDS011;2990;48.746;9.236;2023-12-04T04:19:01;2.27;;;2.17;;
5929;SDS011;2990;48.746;9.236;2023-12-04T04:21:27;3.60;;;2.33;;
5929;SDS011;2990;48.746;9.236;2023-12-04T04:23:52;3.33;;;2.23;;
5929;SDS011;2990;48.746;9.236;2023-12-04T04:26:18;2.10;;;2.00;;
5929;SDS011;2990;48.746;9.236;2023-12-04T04:28:44;2.23;;;2.03;;
5929;SDS011;2990;48.746;9.236;2023-12-04T04:31:10;2.40;;;2.30;;
5929;SDS011;2990;48.746;9.236;2023-12-04T04:33:35;3.20;;;2.73;;
5929;SDS011;2990;48.746;9.236;2023-12-04T04:36:01;2.30;;;2.00;;
5929;SDS011;2990;48.746;9.236;2023-12-04T04:38:26;2.03;;;1.93;;
5929;SDS011;2990;48.746;9.236;2023-12-04T04:40:52;1.20;;;1.20;;
5929;SDS011;2990;48.746;9.236;2023-12-04T04:43:19;2.90;;;2.03;;
5929;SDS011;2990;48.746;9.236;2023-12-04T04:45:44;2.53;;;2.30;;
5929;SDS011;2990;48.746;9.236;2023-12-04T04:48:10;2.43;;;2.23;;
5929;SDS011;2990;48.746;9.236;2023-12-04T04:50:36;2.30;;;1.57;;
5929;SDS011;2990;48.746;9.236;2023-12-04T04:53:01;2.03;;;1.93;;
5929;SDS011;2990;48.746;9.236;2023-12-04T04:55:27;1.80;;;1.70;;
5929;SDS011;2990;48.746;9.236;2023-12-04T04:57:52;7.23;;;1.77;;
5929;SDS011;2990;48.746;9.236;2023-12-04T05:00:18;1.80;;;1.70;;
5929;SDS011;2990;48.746;9.236;2023-12-04T05:02:43;2.10;;;1.60;;
5929;SDS011;2990;48.746;9.236;2023-12-04T05:05:09;3.73;;;2.03;;
5929;SDS011;2990;48.746;9.236;2023-12-04T05:07:36;5.33;;;2.57;;
5929;SDS011;2990;48.746;9.236;2023-12-04T05:10:01;1.83;;;1.73;;
5929;SDS011;2990;48.746;9.236;2023-12-04T05:12:27;2.97;;;2.70;;
5929;SDS011;2990;48.746;9.236;2023-12-04T05:14:53;1.47;;;1.20;;
5929;SDS011;2990;48.746;9.236;2023-12-04T05:17:18;3.10;;;1.80;;
5929;SDS011;2990;48.746;9.236;2023-12-04T05:19:44;9.20;;;2.40;;
5929;SDS011;2990;48.746;9.236;2023-12-04T05:22:09;5.80;;;2.60;;
5929;SDS011;2990;48.746;9.236;2023-12-04T05:24:35;1.63;;;1.60;;
5929;SDS011;2990;48.746;9.236;2023-12-04T05:27:00;2.97;;;2.73;;
5929;SDS011;2990;48.746;9.236;2023-12-04T05:29:27;2.50;;;2.10;;
5929;SDS011;2990;48.746;9.236;2023-12-04T05:31:53;1.70;;;1.70;;
5929;SDS011;2990;48.746;9.236;2023-12-04T05:34:18;1.60;;;1.50;;
5929;SDS011;2990;48.746;9.236;2023-12-04T05:36:44;1.13;;;1.13;;
5929;SDS011;2990;48.746;9.236;2023-12-04T05:39:09;1.20;;;1.20;;
5929;SDS011;2990;48.746;9.236;2023-12-04T05:41:35;2.93;;;2.63;;
5929;SDS011;2990;48.746;9.236;2023-12-04T05:44:00;2.70;;;2.50;;
5929;SDS011;2990;48.746;9.236;2023-12-04T05:46:26;1.90;;;1.90;;
5929;SDS011;2990;48.746;9.236;2023-12-04T05:48:52;1.80;;;1.70;;
5929;SDS011;2990;48.746;9.236;2023-12-04T05:51:18;1.37;;;1.33;;
5929;SDS011;2990;48.746;9.236;2023-12-04T05:53:43;2.00;;;1.10;;
5929;SDS011;2990;48.746;9.236;2023-12-04T05:56:09;1.83;;;1.30;;
5929;SDS011;2990;48.746;9.236;2023-12-04T05:58:35;4.80;;;1.63;;
5929;SDS011;2990;48.746;9.236;2023-12-04T06:01:01;3.33;;;3.00;;
5929;SDS011;2990;48.746;9.236;2023-12-04T06:03:27;1.53;;;1.50;;
5929;SDS011;2990;48.746;9.236;2023-12-04T06:05:53;2.33;;;2.30;;
5929;SDS011;2990;48.746;9.236;2023-12-04T06:08:18;3.10;;;1.50;;
5929;SDS011;2990;48.746;9.236;2023-12-04T06:10:44;2.00;;;1.20;;
5929;SDS011;2990;48.746;9.236;2023-12-04T06:13:10;2.00;;;1.93;;
5929;SDS011;2990;48.746;9.236;2023-12-04T06:15:36;2.63;;;2.13;;
5929;SDS011;2990;48.746;9.236;2023-12-04T06:18:02;2.67;;;1.67;;
5929;SDS011;2990;48.746;9.236;2023-12-04T06:20:27;2.60;;;1.33;;
5929;SDS011;2990;48.746;9.236;2023-12-04T06:22:53;2.57;;;2.33;;
5929;SDS011;2990;48.746;9.236;2023-12-04T06:25:19;2.17;;;2.07;;
5929;SDS011;2990;48.746;9.236;2023-12-04T06:27:44;1.97;;;1.83;;
5929;SDS011;2990;48.746;9.236;2023-12-04T06:30:10;6.23;;;2.00;;
5929;SDS011;2990;48.746;9.236;2023-12-04T06:32:37;1.53;;;1.37;;
5929;SDS011;2990;48.746;9.236;2023-12-04T06:35:02;1.50;;;1.40;;
5929;SDS011;2990;48.746;9.236;2023-12-04T06:37:28;6.40;;;1.73;;
5929;SDS011;2990;48.746;9.236;2023-12-04T06:39:54;3.13;;;2.37;;
5929;SDS011;2990;48.746;9.236;2023-12-04T06:42:29;1.97;;;1.87;;
5929;SDS011;2990;48.746;9.236;2023-12-04T06:44:55;1.53;;;1.43;;
5929;SDS011;2990;48.746;9.236;2023-12-04T06:47:22;3.27;;;2.50;;
5929;SDS011;2990;48.746;9.236;2023-12-04T06:49:48;2.00;;;2.00;;
5929;SDS011;2990;48.746;9.236;2023-12-04T06:52:14;4.50;;;3.00;;
5929;SDS011;2990;48.746;9.236;2023-12-04T06:54:39;5.03;;;2.10;;
5929;SDS011;2990;48.746;9.236;2023-12-04T06:57:05;2.27;;;2.17;;
5929;SDS011;2990;48.746;9.236;2023-12-04T06:59:30;1.00;;;1.00;;
5929;SDS011;2990;48.746;9.236;2023-12-04T07:01:56;2.13;;;2.03;;
5929;SDS011;2990;48.746;9.236;2023-12-04T07:04:22;4.27;;;2.27;;
5929;SDS011;2990;48.746;9.236;2023-12-04T07:06:47;3.40;;;1.87;;
5929;SDS011;2990;48.746;9.236;2023-12-04T07:09:14;6.63;;;1.80;;
5929;SDS011;2990;48.746;9.236;2023-12-04T07:11:40;2.10;;;1.70;;
5929;SDS011;2990;48.746;9.236;2023-12-04T07:14:05;2.17;;;2.07;;
5929;SDS011;2990;48.746;9.236;2023-12-04T07:16:32;2.93;;;1.53;;
5929;SDS011;2990;48.746;9.236;2023-12-04T07:19:04;2.93;;;2.23;;
5929;SDS011;2990;48.746;9.236;2023-12-04T07:21:30;2.23;;;2.07;;
5929;SDS011;2990;48.746;9.236;2023-12-04T07:23:55;4.73;;;3.27;;
5929;SDS011;2990;48.746;9.236;2023-12-04T07:26:21;3.10;;;2.47;;
5929;SDS011;2990;48.746;9.236;2023-12-04T07:28:46;4.77;;;2.70;;
5929;SDS011;2990;48.746;9.236;2023-12-04T07:31:12;5.13;;;3.07;;
5929;SDS011;2990;48.746;9.236;2023-12-04T07:33:37;2.90;;;2.67;;
5929;SDS011;2990;48.746;9.236;2023-12-04T07:36:03;2.60;;;1.70;;
5929;SDS011;2990;48.746;9.236;2023-12-04T07:38:29;1.80;;;1.70;;
5929;SDS011;2990;48.746;9.236;2023-12-04T07:40:55;2.23;;;1.97;;
5929;SDS011;2990;48.746;9.236;2023-12-04T07:43:20;3.93;;;3.57;;
5929;SDS011;2990;48.746;9.236;2023-12-04T07:45:46;5.93;;;2.60;;
5929;SDS011;2990;48.746;9.236;2023-12-04T07:48:12;9.30;;;2.43;;
5929;SDS011;2990;48.746;9.236;2023-12-04T07:50:37;2.83;;;2.53;;
5929;SDS011;2990;48.746;9.236;2023-12-04T07:53:05;2.07;;;1.87;;
5929;SDS011;2990;48.746;9.236;2023-12-04T07:55:30;1.97;;;1.87;;
5929;SDS011;2990;48.746;9.236;2023-12-04T07:57:56;2.47;;;2.03;;
5929;SDS011;2990;48.746;9.236;2023-12-04T08:00:22;2.20;;;2.00;;
5929;SDS011;2990;48.746;9.236;2023-12-04T08:02:51;2.80;;;2.37;;
5929;SDS011;2990;48.746;9.236;2023-12-04T08:05:16;6.43;;;3.23;;
5929;SDS011;2990;48.746;9.236;2023-12-04T08:07:42;2.83;;;2.00;;
5929;SDS011;2990;48.746;9.236;2023-12-04T08:10:08;1.60;;;1.53;;
5929;SDS011;2990;48.746;9.236;2023-12-04T08:12:34;6.73;;;2.53;;
5929;SDS011;2990;48.746;9.236;2023-12-04T08:14:59;2.23;;;1.83;;
5929;SDS011;2990;48.746;9.236;2023-12-04T08:17:26;2.63;;;2.43;;
5929;SDS011;2990;48.746;9.236;2023-12-04T08:19:52;1.67;;;1.67;;
5929;SDS011;2990;48.746;9.236;2023-12-04T08:22:19;2.60;;;2.40;;
5929;SDS011;2990;48.746;9.236;2023-12-04T08:24:44;1.80;;;1.60;;
5929;SDS011;2990;48.746;9.236;2023-12-04T08:27:10;3.50;;;2.27;;
5929;SDS011;2990;48.746;9.236;2023-12-04T08:29:35;2.00;;;1.90;;
5929;SDS011;2990;48.746;9.236;2023-12-04T08:32:01;2.77;;;2.57;;
5929;SDS011;2990;48.746;9.236;2023-12-04T08:34:26;3.10;;;2.90;;
5929;SDS011;2990;48.746;9.236;2023-12-04T08:36:52;5.97;;;2.83;;
5929;SDS011;2990;48.746;9.236;2023-12-04T08:39:18;2.20;;;2.10;;
5929;SDS011;2990;48.746;9.236;2023-12-04T08:41:46;1.50;;;1.47;;
5929;SDS011;2990;48.746;9.236;2023-12-04T08:44:12;3.97;;;2.87;;
5929;SDS011;2990;48.746;9.236;2023-12-04T08:46:38;4.60;;;3.07;;
5929;SDS011;2990;48.746;9.236;2023-12-04T08:49:04;2.33;;;2.17;;
5929;SDS011;2990;48.746;9.236;2023-12-04T08:51:30;2.57;;;2.03;;
5929;SDS011;2990;48.746;9.236;2023-12-04T08:53:56;2.13;;;1.83;;
5929;SDS011;2990;48.746;9.236;2023-12-04T08:56:22;3.17;;;2.27;;
5929;SDS011;2990;48.746;9.236;2023-12-04T08:58:48;3.90;;;3.47;;
5929;SDS011;2990;48.746;9.236;2023-12-04T09:01:15;2.63;;;2.43;;
5929;SDS011;2990;48.746;9.236;2023-12-04T09:03:40;2.33;;;2.13;;
5929;SDS011;2990;48.746;9.236;2023-12-04T09:06:06;2.50;;;2.30;;
5929;SDS011;2990;48.746;9.236;2023-12-04T09:08:32;3.13;;;2.57;;
5929;SDS011;2990;48.746;9.236;2023-12-04T09:10:57;2.73;;;2.53;;
5929;SDS011;2990;48.746;9.236;2023-12-04T09:13:23;3.20;;;3.00;;
5929;SDS011;2990;48.746;9.236;2023-12-04T09:15:49;2.03;;;1.93;;
5929;SDS011;2990;48.746;9.236;2023-12-04T09:18:14;2.40;;;1.97;;
5929;SDS011;2990;48.746;9.236;2023-12-04T09:20:40;3.30;;;2.10;;
5929;SDS011;2990;48.746;9.236;2023-12-04T09:23:06;2.73;;;2.20;;
5929;SDS011;2990;48.746;9.236;2023-12-04T09:25:31;12.80;;;2.17;;
5929;SDS011;2990;48.746;9.236;2023-12-04T09:27:57;4.27;;;2.13;;
5929;SDS011;2990;48.746;9.236;2023-12-04T09:30:22;2.13;;;1.90;;
5929;SDS011;2990;48.746;9.236;2023-12-04T09:32:48;2.20;;;2.10;;
5929;SDS011;2990;48.746;9.236;2023-12-04T09:35:13;2.97;;;2.80;;
5929;SDS011;2990;48.746;9.236;2023-12-04T09:37:40;2.23;;;2.00;;
5929;SDS011;2990;48.746;9.236;2023-12-04T09:40:06;4.83;;;2.57;;
5929;SDS011;2990;48.746;9.236;2023-12-04T09:42:33;3.70;;;3.17;;
5929;SDS011;2990;48.746;9.236;2023-12-04T09:44:59;4.97;;;2.57;;
5929;SDS011;2990;48.746;9.236;2023-12-04T09:47:26;5.40;;;3.77;;
5929;SDS011;2990;48.746;9.236;2023-12-04T09:49:53;8.47;;;3.87;;
5929;SDS011;2990;48.746;9.236;2023-12-04T09:52:19;6.90;;;3.60;;
5929;SDS011;2990;48.746;9.236;2023-12-04T09:54:45;5.67;;;4.63;;
5929;SDS011;2990;48.746;9.236;2023-12-04T09:57:11;10.17;;;5.37;;
5929;SDS011;2990;48.746;9.236;2023-12-04T09:59:38;9.60;;;6.40;;
5929;SDS011;2990;48.746;9.236;2023-12-04T10:02:04;12.53;;;7.00;;
5929;SDS011;2990;48.746;9.236;2023-12-04T10:04:30;13.00;;;6.10;;
5929;SDS011;2990;48.746;9.236;2023-12-04T10:06:57;11.57;;;4.80;;
5929;SDS011;2990;48.746;9.236;2023-12-04T10:09:22;6.40;;;3.60;;
5929;SDS011;2990;48.746;9.236;2023-12-04T10:11:50;2.80;;;2.60;;
5929;SDS011;2990;48.746;9.236;2023-12-04T10:14:18;3.70;;;3.40;;
5929;SDS011;2990;48.746;9.236;2023-12-04T10:16:44;5.80;;;2.67;;
5929;SDS011;2990;48.746;9.236;2023-12-04T10:19:14;4.73;;;2.73;;
5929;SDS011;2990;48.746;9.236;2023-12-04T10:21:48;2.63;;;2.53;;
5929;SDS011;2990;48.746;9.236;2023-12-04T10:24:28;3.80;;;2.70;;
5929;SDS011;2990;48.746;9.236;2023-12-04T10:27:01;3.17;;;2.67;;
5929;SDS011;2990;48.746;9.236;2023-12-04T10:29:30;6.07;;;2.07;;
5929;SDS011;2990;48.746;9.236;2023-12-04T10:32:17;2.70;;;2.53;;
5929;SDS011;2990;48.746;9.236;2023-12-04T10:34:46;5.93;;;2.20;;
5929;SDS011;2990;48.746;9.236;2023-12-04T10:37:12;4.43;;;2.63;;
5929;SDS011;2990;48.746;9.236;2023-12-04T10:39:46;2.73;;;2.63;;
5929;SDS011;2990;48.746;9.236;2023-12-04T10:42:15;3.40;;;3.20;;
5929;SDS011;2990;48.746;9.236;2023-12-04T10:44:52;1.83;;;1.83;;
5929;SDS011;2990;48.746;9.236;2023-12-04T10:47:19;3.93;;;2.03;;
5929;SDS011;2990;48.746;9.236;2023-12-04T10:49:46;2.20;;;2.00;;
5929;SDS011;2990;48.746;9.236;2023-12-04T10:52:17;2.93;;;2.67;;
5929;SDS011;2990;48.746;9.236;2023-12-04T10:54:44;5.17;;;2.20;;
5929;SDS011;2990;48.746;9.236;2023-12-04T10:57:11;2.27;;;2.07;;
5929;SDS011;2990;48.746;9.236;2023-12-04T10:59:41;4.07;;;2.37;;
5929;SDS011;2990;48.746;9.236;2023-12-04T11:02:07;4.40;;;4.10;;
5929;SDS011;2990;48.746;9.236;2023-12-04T11:04:42;7.60;;;4.40;;
5929;SDS011;2990;48.746;9.236;2023-12-04T11:07:08;3.27;;;2.87;;
5929;SDS011;2990;48.746;9.236;2023-12-04T11:09:35;4.57;;;2.87;;
5929;SDS011;2990;48.746;9.236;2023-12-04T11:12:02;3.20;;;2.63;;
5929;SDS011;2990;48.746;9.236;2023-12-04T11:14:39;3.47;;;3.17;;
5929;SDS011;2990;48.746;9.236;2023-12-04T11:17:12;2.33;;;2.23;;
5929;SDS011;2990;48.746;9.236;2023-12-04T11:19:55;3.30;;;3.00;;
5929;SDS011;2990;48.746;9.236;2023-12-04T11:22:26;3.53;;;2.03;;
5929;SDS011;2990;48.746;9.236;2023-12-04T11:24:52;2.30;;;2.20;;
5929;SDS011;2990;48.746;9.236;2023-12-04T11:27:19;2.33;;;2.13;;
5929;SDS011;2990;48.746;9.236;2023-12-04T11:29:46;2.40;;;2.27;;
5929;SDS011;2990;48.746;9.236;2023-12-04T11:32:16;3.17;;;2.37;;
5929;SDS011;2990;48.746;9.236;2023-12-04T11:34:49;3.43;;;3.13;;
5929;SDS011;2990;48.746;9.236;2023-12-04T11:37:15;2.23;;;2.10;;
5929;SDS011;2990;48.746;9.236;2023-12-04T11:39:41;3.30;;;3.00;;
5929;SDS011;2990;48.746;9.236;2023-12-04T11:42:06;3.03;;;2.70;;
5929;SDS011;2990;48.746;9.236;2023-12-04T11:44:32;3.80;;;1.70;;
5929;SDS011;2990;48.746;9.236;2023-12-04T11:47:07;2.23;;;2.03;;
5929;SDS011;2990;48.746;9.236;2023-12-04T11:49:33;1.90;;;1.80;;
5929;SDS011;2990;48.746;9.236;2023-12-04T11:52:00;2.63;;;2.53;;
5929;SDS011;2990;48.746;9.236;2023-12-04T11:54:36;4.00;;;2.13;;
5929;SDS011;2990;48.746;9.236;2023-12-04T11:57:25;2.13;;;1.97;;
5929;SDS011;2990;48.746;9.236;2023-12-04T12:00:04;2.07;;;1.97;;
5929;SDS011;2990;48.746;9.236;2023-12-04T12:02:33;2.87;;;2.60;;
5929;SDS011;2990;48.746;9.236;2023-12-04T12:04:58;3.20;;;2.83;;
5929;SDS011;2990;48.746;9.236;2023-12-04T12:07:24;2.63;;;2.53;;
5929;SDS011;2990;48.746;9.236;2023-12-04T12:09:50;5.13;;;3.37;;
5929;SDS011;2990;48.746;9.236;2023-12-04T12:12:15;5.00;;;3.87;;
5929;SDS011;2990;48.746;9.236;2023-12-04T12:14:41;2.78;;;2.55;;
5929;SDS011;2990;48.746;9.236;2023-12-04T12:17:06;3.23;;;2.90;;
5929;SDS011;2990;48.746;9.236;2023-12-04T12:19:32;5.00;;;4.10;;
5929;SDS011;2990;48.746;9.236;2023-12-04T12:21:57;3.53;;;3.25;;
5929;SDS011;2990;48.746;9.236;2023-12-04T12:24:23;3.33;;;3.07;;
5929;SDS011;2990;48.746;9.236;2023-12-04T12:26:50;4.00;;;3.40;;
5929;SDS011;2990;48.746;9.236;2023-12-04T12:29:15;4.38;;;4.00;;
5929;SDS011;2990;48.746;9.236;2023-12-04T12:31:41;4.05;;;3.50;;
5929;SDS011;2990;48.746;9.236;2023-12-04T12:34:06;4.13;;;3.92;;
5929;SDS011;2990;48.746;9.236;2023-12-04T12:36:32;3.70;;;3.33;;
5929;SDS011;2990;48.746;9.236;2023-12-04T12:38:58;4.50;;;3.85;;
5929;SDS011;2990;48.746;9.236;2023-12-04T12:41:25;5.07;;;3.88;;
5929;SDS011;2990;48.746;9.236;2023-12-04T12:43:51;5.67;;;3.87;;
5929;SDS011;2990;48.746;9.236;2023-12-04T12:46:18;4.32;;;3.92;;
5929;SDS011;2990;48.746;9.236;2023-12-04T12:48:44;5.45;;;4.50;;
5929;SDS011;2990;48.746;9.236;2023-12-04T12:51:11;5.47;;;3.67;;
5929;SDS011;2990;48.746;9.236;2023-12-04T12:53:38;4.40;;;4.10;;
5929;SDS011;2990;48.746;9.236;2023-12-04T12:56:04;3.67;;;3.38;;
5929;SDS011;2990;48.746;9.236;2023-12-04T12:58:30;5.17;;;4.20;;
5929;SDS011;2990;48.746;9.236;2023-12-04T13:00:56;4.53;;;3.55;;
5929;SDS011;2990;48.746;9.236;2023-12-04T13:03:21;5.53;;;3.73;;
5929;SDS011;2990;48.746;9.236;2023-12-04T13:05:47;5.68;;;4.03;;
5929;SDS011;2990;48.746;9.236;2023-12-04T13:08:13;6.28;;;4.47;;
5929;SDS011;2990;48.746;9.236;2023-12-04T13:10:40;4.17;;;3.80;;
5929;SDS011;2990;48.746;9.236;2023-12-04T13:13:13;3.77;;;3.50;;
5929;SDS011;2990;48.746;9.236;2023-12-04T13:15:39;5.80;;;3.97;;
5929;SDS011;2990;48.746;9.236;2023-12-04T13:18:06;5.17;;;4.67;;
5929;SDS011;2990;48.746;9.236;2023-12-04T13:20:32;5.50;;;4.27;;
5929;SDS011;2990;48.746;9.236;2023-12-04T13:22:59;4.33;;;4.03;;
5929;SDS011;2990;48.746;9.236;2023-12-04T13:25:25;4.97;;;3.90;;
5929;SDS011;2990;48.746;9.236;2023-12-04T13:27:50;3.83;;;3.50;;
5929;SDS011;2990;48.746;9.236;2023-12-04T13:30:16;4.80;;;4.10;;
5929;SDS011;2990;48.746;9.236;2023-12-04T13:32:42;3.20;;;2.97;;
5929;SDS011;2990;48.746;9.236;2023-12-04T13:35:08;4.20;;;3.65;;
5929;SDS011;2990;48.746;9.236;2023-12-04T13:37:34;7.63;;;4.47;;
5929;SDS011;2990;48.746;9.236;2023-12-04T13:40:01;4.40;;;4.00;;
5929;SDS011;2990;48.746;9.236;2023-12-04T13:42:38;10.07;;;3.67;;
5929;SDS011;2990;48.746;9.236;2023-12-04T13:45:22;6.27;;;3.80;;
5929;SDS011;2990;48.746;9.236;2023-12-04T13:47:48;3.83;;;3.57;;
5929;SDS011;2990;48.746;9.236;2023-12-04T13:50:15;3.47;;;3.23;;
5929;SDS011;2990;48.746;9.236;2023-12-04T13:52:40;6.60;;;3.90;;
5929;SDS011;2990;48.746;9.236;2023-12-04T13:55:07;4.30;;;3.93;;
5929;SDS011;2990;48.746;9.236;2023-12-04T13:57:44;3.53;;;3.35;;
5929;SDS011;2990;48.746;9.236;2023-12-04T14:00:35;5.72;;;4.50;;
5929;SDS011;2990;48.746;9.236;2023-12-04T14:03:01;5.05;;;3.83;;
5929;SDS011;2990;48.746;9.236;2023-12-04T14:05:32;6.33;;;4.17;;
5929;SDS011;2990;48.746;9.236;2023-12-04T14:08:00;5.53;;;3.33;;
5929;SDS011;2990;48.746;9.236;2023-12-04T14:10:26;11.33;;;3.80;;
5929;SDS011;2990;48.746;9.236;2023-12-04T14:12:52;3.23;;;3.03;;
5929;SDS011;2990;48.746;9.236;2023-12-04T14:15:18;5.13;;;3.43;;
5929;SDS011;2990;48.746;9.236;2023-12-04T14:17:45;3.53;;;3.23;;
5929;SDS011;2990;48.746;9.236;2023-12-04T14:20:11;3.97;;;3.73;;
5929;SDS011;2990;48.746;9.236;2023-12-04T14:22:41;3.20;;;2.97;;
5929;SDS011;2990;48.746;9.236;2023-12-04T14:25:08;3.90;;;3.60;;
5929;SDS011;2990;48.746;9.236;2023-12-04T14:27:33;4.03;;;2.53;;
5929;SDS011;2990;48.746;9.236;2023-12-04T14:30:00;4.00;;;3.33;;
5929;SDS011;2990;48.746;9.236;2023-12-04T14:32:26;4.10;;;3.37;;
5929;SDS011;2990;48.746;9.236;2023-12-04T14:34:52;2.67;;;2.40;;
5929;SDS011;2990;48.746;9.236;2023-12-04T14:37:17;3.75;;;3.35;;
5929;SDS011;2990;48.746;9.236;2023-12-04T14:39:43;4.33;;;3.77;;
5929;SDS011;2990;48.746;9.236;2023-12-04T14:42:10;5.28;;;4.20;;
5929;SDS011;2990;48.746;9.236;2023-12-04T14:44:36;9.05;;;3.15;;
5929;SDS011;2990;48.746;9.236;2023-12-04T14:47:01;6.03;;;3.80;;
5929;SDS011;2990;48.746;9.236;2023-12-04T14:49:29;7.83;;;3.80;;
5929;SDS011;2990;48.746;9.236;2023-12-04T14:51:54;4.33;;;3.27;;
5929;SDS011;2990;48.746;9.236;2023-12-04T14:54:22;6.13;;;3.70;;
5929;SDS011;2990;48.746;9.236;2023-12-04T14:57:02;10.87;;;4.63;;
5929;SDS011;2990;48.746;9.236;2023-12-04T14:59:44;6.10;;;3.40;;
5929;SDS011;2990;48.746;9.236;2023-12-04T15:02:28;3.53;;;3.27;;
5929;SDS011;2990;48.746;9.236;2023-12-04T15:05:12;8.40;;;3.37;;
5929;SDS011;2990;48.746;9.236;2023-12-04T15:07:43;4.10;;;3.67;;
5929;SDS011;2990;48.746;9.236;2023-12-04T15:10:12;7.38;;;4.38;;
5929;SDS011;2990;48.746;9.236;2023-12-04T15:13:08;8.50;;;4.82;;
5929;SDS011;2990;48.746;9.236;2023-12-04T15:15:52;6.93;;;4.07;;
5929;SDS011;2990;48.746;9.236;2023-12-04T15:18:41;4.43;;;3.60;;